createdAt,value
2023-09-25T00:01:45.468Z,1.05
2023-09-25T00:04:13.068Z,0.93
2023-09-25T00:06:41.102Z,0.65
2023-09-25T00:09:08.703Z,0.80
2023-09-25T00:11:36.332Z,0.80
2023-09-25T00:14:03.993Z,0.60
2023-09-25T00:16:32.858Z,0.75
2023-09-25T00:19:00.481Z,0.75
2023-09-25T00:21:28.095Z,0.60
2023-09-25T00:23:55.911Z,0.55
2023-09-25T00:26:23.697Z,0.70
2023-09-25T00:28:51.642Z,0.60
2023-09-25T00:31:19.415Z,0.47
2023-09-25T00:33:48.609Z,0.82
2023-09-25T00:36:16.659Z,0.30
2023-09-25T00:38:44.392Z,1.05
2023-09-25T00:41:12.226Z,0.70
2023-09-25T00:43:39.959Z,0.82
2023-09-25T00:46:07.768Z,0.88
2023-09-25T00:48:36.892Z,1.00
2023-09-25T00:51:07.084Z,0.80
2023-09-25T00:53:35.443Z,0.70
2023-09-25T00:56:03.541Z,0.73
2023-09-25T00:58:31.606Z,0.73
2023-09-25T01:00:59.847Z,0.70
2023-09-25T01:03:27.584Z,0.63
2023-09-25T01:05:55.313Z,0.80
2023-09-25T01:08:24.379Z,0.85
2023-09-25T01:10:52.125Z,0.50
2023-09-25T01:13:19.696Z,0.57
2023-09-25T01:15:47.480Z,0.60
2023-09-25T01:18:15.279Z,0.60
2023-09-25T01:20:42.878Z,0.50
2023-09-25T01:23:11.788Z,0.60
2023-09-25T01:25:39.383Z,0.50
2023-09-25T01:28:07.215Z,0.60
2023-09-25T01:30:34.941Z,0.70
2023-09-25T01:33:02.743Z,0.70
2023-09-25T01:35:30.459Z,0.70
2023-09-25T01:37:59.497Z,0.80
2023-09-25T01:40:28.992Z,0.52
2023-09-25T01:42:57.145Z,0.70
2023-09-25T01:45:25.537Z,0.60
2023-09-25T01:47:55.628Z,0.60
2023-09-25T01:50:25.240Z,0.80
2023-09-25T01:52:54.986Z,0.80
2023-09-25T01:55:22.713Z,0.70
2023-09-25T01:57:51.646Z,0.68
2023-09-25T02:00:20.469Z,0.60
2023-09-25T02:02:49.055Z,0.70
2023-09-25T02:05:17.485Z,0.60
2023-09-25T02:07:45.464Z,0.60
2023-09-25T02:10:13.100Z,0.60
2023-09-25T02:12:40.712Z,0.77
2023-09-25T02:15:11.306Z,0.40
2023-09-25T02:17:39.009Z,0.70
2023-09-25T02:20:21.777Z,0.60
2023-09-25T02:22:50.158Z,0.70
2023-09-25T02:25:18.701Z,0.40
2023-09-25T02:27:47.116Z,0.70
2023-09-25T02:30:16.678Z,0.70
2023-09-25T02:32:44.912Z,0.65
2023-09-25T02:35:12.966Z,0.80
2023-09-25T02:37:41.933Z,0.80
2023-09-25T02:40:10.782Z,0.68
2023-09-25T02:42:38.417Z,0.70
2023-09-25T02:45:06.803Z,0.60
2023-09-25T02:47:35.855Z,0.90
2023-09-25T02:50:03.412Z,0.80
2023-09-25T02:52:31.008Z,0.70
2023-09-25T02:54:58.607Z,0.90
2023-09-25T02:57:26.271Z,0.70
2023-09-25T02:59:53.944Z,1.10
2023-09-25T03:02:21.899Z,0.80
2023-09-25T03:04:50.805Z,1.00
2023-09-25T03:07:18.713Z,0.60
2023-09-25T03:09:46.333Z,0.60
2023-09-25T03:12:14.060Z,1.00
2023-09-25T03:14:42.203Z,0.60
2023-09-25T03:17:09.763Z,0.90
2023-09-25T03:19:39.337Z,0.70
2023-09-25T03:22:08.394Z,0.80
2023-09-25T03:24:36.697Z,1.00
2023-09-25T03:27:04.286Z,0.82
2023-09-25T03:29:31.833Z,0.70
2023-09-25T03:31:59.342Z,0.82
2023-09-25T03:34:26.894Z,1.00
2023-09-25T03:36:54.440Z,0.82
2023-09-25T03:39:23.372Z,0.80
2023-09-25T03:41:51.058Z,0.70
2023-09-25T03:44:18.624Z,0.63
2023-09-25T03:46:46.211Z,0.70
2023-09-25T03:49:13.792Z,1.48
2023-09-25T03:51:41.466Z,0.68
2023-09-25T03:54:09.262Z,0.82
2023-09-25T03:56:38.924Z,0.63
2023-09-25T03:59:06.705Z,0.80
2023-09-25T04:01:34.294Z,0.98
2023-09-25T04:04:02.008Z,0.70
2023-09-25T04:06:29.645Z,0.77
2023-09-25T04:08:57.237Z,0.77
2023-09-25T04:11:25.330Z,0.82
2023-09-25T04:13:54.280Z,0.88
2023-09-25T04:16:23.542Z,0.60
2023-09-25T04:18:51.644Z,1.00
2023-09-25T04:21:19.535Z,0.80
2023-09-25T04:23:47.279Z,0.68
2023-09-25T04:26:15.135Z,1.00
2023-09-25T04:28:42.863Z,1.08
2023-09-25T04:31:12.438Z,0.68
2023-09-25T04:33:40.437Z,0.80
2023-09-25T04:36:11.188Z,0.80
2023-09-25T04:38:39.031Z,1.00
2023-09-25T04:41:07.068Z,0.88
2023-09-25T04:43:34.747Z,0.85
2023-09-25T04:46:02.667Z,0.82
2023-09-25T04:48:31.921Z,0.80
2023-09-25T04:50:59.867Z,0.80
2023-09-25T04:53:27.487Z,0.60
2023-09-25T04:55:55.251Z,0.70
2023-09-25T04:58:22.931Z,0.80
2023-09-25T05:00:50.734Z,0.85
2023-09-25T05:03:18.497Z,0.82
2023-09-25T05:05:47.684Z,0.82
2023-09-25T05:08:16.277Z,0.82
2023-09-25T05:10:45.659Z,0.90
2023-09-25T05:13:13.395Z,0.80
2023-09-25T05:15:41.181Z,1.10
2023-09-25T05:18:08.872Z,0.98
2023-09-25T05:20:36.470Z,0.80
2023-09-25T05:23:05.680Z,0.80
2023-09-25T05:25:33.454Z,0.90
2023-09-25T05:28:01.083Z,0.80
2023-09-25T05:30:28.660Z,1.10
2023-09-25T05:32:56.439Z,0.77
2023-09-25T05:35:24.410Z,1.20
2023-09-25T05:37:51.939Z,1.00
2023-09-25T05:40:21.189Z,1.20
2023-09-25T05:42:49.995Z,0.82
2023-09-25T05:45:19.040Z,1.00
2023-09-25T05:47:47.029Z,1.08
2023-09-25T05:50:14.815Z,1.02
2023-09-25T05:52:42.931Z,0.68
2023-09-25T05:55:11.758Z,0.80
2023-09-25T05:57:42.614Z,0.65
2023-09-25T06:00:13.190Z,0.85
2023-09-25T06:02:41.722Z,1.10
2023-09-25T06:05:10.486Z,0.90
2023-09-25T06:07:38.112Z,1.00
2023-09-25T06:10:06.256Z,0.70
2023-09-25T06:12:34.145Z,0.90
2023-09-25T06:15:06.374Z,1.00
2023-09-25T06:17:34.007Z,1.00
2023-09-25T06:20:01.904Z,0.88
2023-09-25T06:22:29.461Z,0.98
2023-09-25T06:24:57.369Z,0.60
2023-09-25T06:27:25.087Z,0.80
2023-09-25T06:29:52.902Z,0.77
2023-09-25T06:32:25.176Z,0.80
2023-09-25T06:34:54.023Z,0.95
2023-09-25T06:37:21.700Z,0.75
2023-09-25T06:39:49.316Z,0.82
2023-09-25T06:42:17.830Z,0.70
2023-09-25T06:44:46.464Z,0.77
2023-09-25T06:47:14.762Z,1.05
2023-09-25T06:49:43.909Z,0.70
2023-09-25T06:52:11.563Z,0.90
2023-09-25T06:54:39.329Z,0.93
2023-09-25T06:57:07.166Z,0.83
2023-09-25T06:59:35.298Z,0.98
2023-09-25T07:02:03.003Z,0.80
2023-09-25T07:04:30.848Z,0.75
2023-09-25T07:07:00.460Z,0.98
2023-09-25T07:09:29.497Z,0.80
2023-09-25T07:11:57.091Z,0.85
2023-09-25T07:14:25.316Z,0.80
2023-09-25T07:16:53.429Z,0.73
2023-09-25T07:19:21.172Z,0.90
2023-09-25T07:21:48.751Z,1.00
2023-09-25T07:24:17.720Z,0.75
2023-09-25T07:26:45.359Z,0.70
2023-09-25T07:29:26.388Z,0.75
2023-09-25T07:31:58.308Z,0.73
2023-09-25T07:34:25.853Z,0.50
2023-09-25T07:36:53.510Z,0.90
2023-09-25T07:39:23.924Z,0.60
2023-09-25T07:41:51.626Z,1.10
2023-09-25T07:44:19.328Z,0.80
2023-09-25T07:46:48.666Z,0.87
2023-09-25T07:49:16.447Z,0.88
2023-09-25T07:51:44.807Z,0.60
2023-09-25T07:54:12.661Z,1.00
2023-09-25T07:56:41.703Z,0.70
2023-09-25T07:59:09.492Z,0.73
2023-09-25T08:01:39.958Z,1.23
2023-09-25T08:04:07.880Z,0.77
2023-09-25T08:06:35.615Z,0.80
2023-09-25T08:09:04.390Z,0.65
2023-09-25T08:11:31.962Z,0.53
2023-09-25T08:14:00.853Z,0.57
2023-09-25T08:16:28.703Z,0.63
2023-09-25T08:18:56.275Z,0.70
2023-09-25T08:21:23.960Z,0.80
2023-09-25T08:23:52.205Z,0.80
2023-09-25T08:26:20.523Z,0.80
2023-09-25T08:28:48.607Z,0.70
2023-09-25T08:31:17.754Z,0.90
2023-09-25T08:33:45.396Z,0.60
2023-09-25T08:36:14.740Z,0.80
2023-09-25T08:38:42.287Z,0.80
2023-09-25T08:41:11.318Z,0.55
2023-09-25T08:43:42.553Z,0.82
2023-09-25T08:46:10.867Z,0.80
2023-09-25T08:48:41.073Z,0.80
2023-09-25T08:51:08.973Z,0.65
2023-09-25T08:53:38.872Z,0.90
2023-09-25T08:56:07.441Z,0.60
2023-09-25T08:58:35.488Z,0.82
2023-09-25T09:01:03.087Z,0.80
2023-09-25T09:03:33.192Z,0.82
2023-09-25T09:06:02.732Z,0.60
2023-09-25T09:08:33.830Z,1.08
2023-09-25T09:11:10.375Z,0.70
2023-09-25T09:13:43.997Z,0.60
2023-09-25T09:16:20.250Z,0.60
2023-09-25T09:18:48.966Z,0.65
2023-09-25T09:21:27.953Z,0.73
2023-09-25T09:23:58.096Z,0.85
2023-09-25T09:26:26.288Z,0.80
2023-09-25T09:28:55.271Z,0.88
2023-09-25T09:31:23.176Z,0.65
2023-09-25T09:33:51.515Z,0.75
2023-09-25T09:36:20.988Z,0.80
2023-09-25T09:38:50.936Z,0.70
2023-09-25T09:41:20.080Z,0.70
2023-09-25T09:43:49.303Z,0.63
2023-09-25T09:46:18.225Z,0.70
2023-09-25T09:48:48.714Z,0.68
2023-09-25T09:51:18.924Z,0.73
2023-09-25T09:53:47.999Z,0.57
2023-09-25T09:56:19.272Z,0.60
2023-09-25T09:58:48.893Z,0.70
2023-09-25T10:01:17.331Z,0.70
2023-09-25T10:03:45.166Z,0.80
2023-09-25T10:06:12.961Z,0.80
2023-09-25T10:08:40.582Z,0.68
2023-09-25T10:11:24.220Z,0.70
2023-09-25T10:13:56.182Z,0.73
2023-09-25T10:16:23.924Z,0.70
2023-09-25T10:18:53.799Z,0.50
2023-09-25T10:21:21.523Z,0.50
2023-09-25T10:23:51.224Z,0.60
2023-09-25T10:26:24.407Z,0.77
2023-09-25T10:29:00.572Z,0.70
2023-09-25T10:31:30.571Z,0.60
2023-09-25T10:34:00.002Z,0.55
2023-09-25T10:36:42.251Z,0.50
2023-09-25T10:39:10.814Z,0.40
2023-09-25T10:41:39.775Z,0.70
2023-09-25T10:44:07.703Z,0.60
2023-09-25T10:46:36.558Z,0.68
2023-09-25T10:49:04.387Z,0.70
2023-09-25T10:51:32.307Z,0.50
2023-09-25T10:54:00.053Z,0.60
2023-09-25T10:56:27.788Z,0.70
2023-09-25T10:58:57.734Z,0.70
2023-09-25T11:01:25.939Z,0.70
2023-09-25T11:03:56.717Z,0.90
2023-09-25T11:06:24.808Z,0.70
2023-09-25T11:08:59.545Z,0.68
2023-09-25T11:11:27.278Z,0.68
2023-09-25T11:13:56.681Z,0.80
2023-09-25T11:16:25.668Z,0.60
2023-09-25T11:19:07.271Z,1.00
2023-09-25T11:21:35.005Z,0.93
2023-09-25T11:24:06.569Z,1.00
2023-09-25T11:26:38.062Z,0.70
2023-09-25T11:29:09.716Z,0.60
2023-09-25T11:31:54.634Z,0.70
2023-09-25T11:34:26.342Z,0.88
2023-09-25T11:36:54.099Z,0.70
2023-09-25T11:39:21.953Z,0.70
2023-09-25T11:41:49.951Z,0.52
2023-09-25T11:44:19.085Z,0.83
2023-09-25T11:46:47.682Z,0.70
2023-09-25T11:49:15.723Z,0.70
2023-09-25T11:51:43.556Z,0.68
2023-09-25T11:54:12.328Z,0.70
2023-09-25T11:56:40.784Z,0.70
2023-09-25T11:59:10.177Z,0.65
2023-09-25T12:01:39.233Z,0.70
2023-09-25T12:04:07.533Z,0.70
2023-09-25T12:06:36.161Z,0.70
2023-09-25T12:09:12.172Z,0.80
2023-09-25T12:11:39.932Z,0.60
2023-09-25T12:14:07.596Z,0.57
2023-09-25T12:16:35.535Z,0.80
2023-09-25T12:19:05.903Z,1.00
2023-09-25T12:21:33.950Z,0.70
2023-09-25T12:24:01.756Z,0.73
2023-09-25T12:26:29.534Z,0.50
2023-09-25T12:28:57.482Z,0.60
2023-09-25T12:31:25.286Z,0.70
2023-09-25T12:33:53.067Z,0.80
2023-09-25T12:36:22.111Z,0.73
2023-09-25T12:38:49.766Z,0.77
2023-09-25T12:41:17.628Z,0.60
2023-09-25T12:43:45.319Z,0.70
2023-09-25T12:46:13.582Z,0.70
2023-09-25T12:48:42.881Z,0.57
2023-09-25T12:51:10.898Z,0.82
2023-09-25T12:53:40.330Z,0.80
2023-09-25T12:56:08.295Z,0.70
2023-09-25T12:58:38.591Z,0.70
2023-09-25T13:01:06.625Z,0.90
2023-09-25T13:03:34.479Z,0.93
2023-09-25T13:06:04.229Z,0.77
2023-09-25T13:08:32.234Z,0.80
2023-09-25T13:11:01.524Z,0.90
2023-09-25T13:13:29.486Z,0.90
2023-09-25T13:15:57.233Z,1.17
2023-09-25T13:18:25.148Z,0.77
2023-09-25T13:20:52.955Z,0.88
2023-09-25T13:23:20.663Z,1.00
2023-09-25T13:25:48.236Z,0.70
2023-09-25T13:28:17.539Z,0.65
2023-09-25T13:30:45.456Z,0.80
2023-09-25T13:33:13.143Z,0.80
2023-09-25T13:35:40.865Z,0.80
2023-09-25T13:38:09.387Z,0.68
2023-09-25T13:40:38.137Z,0.77
2023-09-25T13:43:05.908Z,1.08
2023-09-25T13:45:34.948Z,0.95
2023-09-25T13:48:02.659Z,0.83
2023-09-25T13:50:30.290Z,0.80
2023-09-25T13:52:57.875Z,0.90
2023-09-25T13:55:25.506Z,0.82
2023-09-25T13:57:53.366Z,0.85
2023-09-25T14:00:21.074Z,0.60
2023-09-25T14:02:50.059Z,0.90
2023-09-25T14:05:20.727Z,1.02
2023-09-25T14:07:48.400Z,0.70
2023-09-25T14:10:16.131Z,0.88
2023-09-25T14:12:45.644Z,0.90
2023-09-25T14:15:14.995Z,0.80
2023-09-25T14:17:42.900Z,0.60
2023-09-25T14:20:12.982Z,0.75
2023-09-25T14:22:41.215Z,0.80
2023-09-25T14:25:09.359Z,0.80
2023-09-25T14:27:37.181Z,0.88
2023-09-25T14:30:05.373Z,0.80
2023-09-25T14:32:33.054Z,0.80
2023-09-25T14:35:01.134Z,0.80
2023-09-25T14:37:30.172Z,0.60
2023-09-25T14:39:58.335Z,0.90
2023-09-25T14:42:30.170Z,0.73
2023-09-25T14:44:57.797Z,0.90
2023-09-25T14:47:25.550Z,0.95
2023-09-25T14:49:53.387Z,0.87
2023-09-25T14:52:20.941Z,0.90
2023-09-25T14:54:51.099Z,0.90
2023-09-25T14:57:19.283Z,1.00
2023-09-25T14:59:46.930Z,1.13
2023-09-25T15:02:15.423Z,0.90
2023-09-25T15:04:43.610Z,0.90
2023-09-25T15:07:11.293Z,0.80
2023-09-25T15:09:39.412Z,0.88
2023-09-25T15:12:09.613Z,0.70
2023-09-25T15:14:37.220Z,1.00
2023-09-25T15:17:04.859Z,0.93
2023-09-25T15:19:32.446Z,0.77
2023-09-25T15:22:00.398Z,0.80
2023-09-25T15:24:28.121Z,0.80
2023-09-25T15:26:55.723Z,0.93
2023-09-25T15:29:24.581Z,1.00
2023-09-25T15:31:52.340Z,0.77
2023-09-25T15:34:19.934Z,0.90
2023-09-25T15:36:47.621Z,0.63
2023-09-25T15:39:15.322Z,0.70
2023-09-25T15:41:42.939Z,0.70
2023-09-25T15:44:10.487Z,0.70
2023-09-25T15:46:39.542Z,0.70
2023-09-25T15:49:07.332Z,0.82
2023-09-25T15:51:35.066Z,0.70
2023-09-25T15:54:02.901Z,0.80
2023-09-25T15:56:30.449Z,0.90
2023-09-25T15:58:57.987Z,0.80
2023-09-25T16:01:25.806Z,0.77
2023-09-25T16:03:55.048Z,0.70
2023-09-25T16:06:22.702Z,0.80
2023-09-25T16:08:50.281Z,0.70
2023-09-25T16:11:17.836Z,0.80
2023-09-25T16:13:45.431Z,0.80
2023-09-25T16:16:14.236Z,0.77
2023-09-25T16:18:42.294Z,0.90
2023-09-25T16:21:11.592Z,0.80
2023-09-25T16:23:39.472Z,0.90
2023-09-25T16:26:07.522Z,1.08
2023-09-25T16:28:35.194Z,0.73
2023-09-25T16:31:02.910Z,0.88
2023-09-25T16:33:30.776Z,1.27
2023-09-25T16:35:58.624Z,0.98
2023-09-25T16:38:27.944Z,0.80
2023-09-25T16:40:56.810Z,0.90
2023-09-25T16:43:24.874Z,0.80
2023-09-25T16:45:54.170Z,0.82
2023-09-25T16:48:22.060Z,0.90
2023-09-25T16:50:49.797Z,0.70
2023-09-25T16:53:17.574Z,0.90
2023-09-25T16:55:49.240Z,0.90
2023-09-25T16:58:17.064Z,0.93
2023-09-25T17:00:44.776Z,0.98
2023-09-25T17:03:14.800Z,0.90
2023-09-25T17:05:43.253Z,0.77
2023-09-25T17:08:11.471Z,1.00
2023-09-25T17:10:42.436Z,0.68
2023-09-25T17:13:12.074Z,1.20
2023-09-25T17:15:42.057Z,1.00
2023-09-25T17:18:13.537Z,0.70
2023-09-25T17:20:41.784Z,0.70
2023-09-25T17:23:10.764Z,0.80
2023-09-25T17:25:38.914Z,0.93
2023-09-25T17:28:07.867Z,0.70
2023-09-25T17:30:37.927Z,0.83
2023-09-25T17:33:06.571Z,0.73
2023-09-25T17:35:35.232Z,0.70
2023-09-25T17:38:03.126Z,0.88
2023-09-25T17:40:30.902Z,0.80
2023-09-25T17:42:58.474Z,1.20
2023-09-25T17:45:26.046Z,0.90
2023-09-25T17:47:54.923Z,0.70
2023-09-25T17:50:22.484Z,1.20
2023-09-25T17:52:50.206Z,0.75
2023-09-25T17:55:18.204Z,0.90
2023-09-25T17:57:46.398Z,1.00
2023-09-25T18:00:14.935Z,0.80
2023-09-25T18:02:42.598Z,1.17
2023-09-25T18:05:11.761Z,0.75
2023-09-25T18:07:39.407Z,0.80
2023-09-25T18:10:07.880Z,0.70
2023-09-25T18:12:37.777Z,1.10
2023-09-25T18:15:08.414Z,0.93
2023-09-25T18:17:35.972Z,0.73
2023-09-25T18:20:03.674Z,0.80
2023-09-25T18:22:33.049Z,0.85
2023-09-25T18:25:01.950Z,1.00
2023-09-25T18:27:31.117Z,0.80
2023-09-25T18:29:58.767Z,0.82
2023-09-25T18:32:26.433Z,0.80
2023-09-25T18:34:54.224Z,0.82
2023-09-25T18:37:22.058Z,0.98
2023-09-25T18:39:51.137Z,1.20
2023-09-25T18:42:18.810Z,0.90
2023-09-25T18:44:46.412Z,0.70
2023-09-25T18:47:13.988Z,0.90
2023-09-25T18:49:41.712Z,1.05
2023-09-25T18:52:09.338Z,1.00
2023-09-25T18:54:36.947Z,0.63
2023-09-25T18:57:05.918Z,0.90
2023-09-25T18:59:33.613Z,0.75
2023-09-25T19:02:01.347Z,0.95
2023-09-25T19:04:29.050Z,1.05
2023-09-25T19:06:56.768Z,1.00
2023-09-25T19:09:24.946Z,0.80
2023-09-25T19:11:52.636Z,0.80
2023-09-25T19:14:22.353Z,0.82
2023-09-25T19:16:50.046Z,0.90
2023-09-25T19:19:18.423Z,1.30
2023-09-25T19:21:46.196Z,0.80
2023-09-25T19:24:13.954Z,0.82
2023-09-25T19:26:41.710Z,0.80
2023-09-25T19:29:09.594Z,1.02
2023-09-25T19:31:43.007Z,1.10
2023-09-25T19:34:12.874Z,1.10
2023-09-25T19:36:42.289Z,0.98
2023-09-25T19:39:10.458Z,0.80
2023-09-25T19:41:38.108Z,1.15
2023-09-25T19:44:06.718Z,1.27
2023-09-25T19:46:35.213Z,1.27
2023-09-25T19:49:05.271Z,1.10
2023-09-25T19:51:35.143Z,1.20
2023-09-25T19:54:03.439Z,1.13
2023-09-25T19:56:31.062Z,1.20
2023-09-25T19:58:58.962Z,1.00
2023-09-25T20:01:27.278Z,1.63
2023-09-25T20:03:55.587Z,1.15
2023-09-25T20:06:26.384Z,1.08
2023-09-25T20:08:54.132Z,1.20
2023-09-25T20:11:21.769Z,1.17
2023-09-25T20:13:49.454Z,1.15
2023-09-25T20:16:17.433Z,1.20
2023-09-25T20:18:45.253Z,1.30
2023-09-25T20:21:13.528Z,1.08
2023-09-25T20:23:43.332Z,1.40
2023-09-25T20:26:11.310Z,1.38
2023-09-25T20:28:41.740Z,1.00
2023-09-25T20:31:10.177Z,1.20
2023-09-25T20:33:37.959Z,1.33
2023-09-25T20:36:06.196Z,1.10
2023-09-25T20:38:34.343Z,0.93
2023-09-25T20:41:03.917Z,1.40
2023-09-25T20:43:31.627Z,1.40
2023-09-25T20:45:59.407Z,1.52
2023-09-25T20:48:27.184Z,1.30
2023-09-25T20:50:54.867Z,1.48
2023-09-25T20:53:22.439Z,1.25
2023-09-25T20:55:50.185Z,1.10
2023-09-25T20:58:19.226Z,1.08
2023-09-25T21:00:46.837Z,1.30
2023-09-25T21:03:14.674Z,1.40
2023-09-25T21:05:42.312Z,1.25
2023-09-25T21:08:09.925Z,1.48
2023-09-25T21:10:37.458Z,1.70
2023-09-25T21:13:06.429Z,1.73
2023-09-25T21:15:36.658Z,1.27
2023-09-25T21:18:04.700Z,1.30
2023-09-25T21:20:32.754Z,1.20
2023-09-25T21:23:00.276Z,1.20
2023-09-25T21:25:28.022Z,1.07
2023-09-25T21:27:55.742Z,1.25
2023-09-25T21:30:23.361Z,1.42
2023-09-25T21:32:52.382Z,1.30
2023-09-25T21:35:20.611Z,1.23
2023-09-25T21:37:48.212Z,1.25
2023-09-25T21:40:15.893Z,1.15
2023-09-25T21:42:43.454Z,1.05
2023-09-25T21:45:11.852Z,1.10
2023-09-25T21:47:40.578Z,1.35
2023-09-25T21:50:10.662Z,1.10
2023-09-25T21:52:38.242Z,0.80
2023-09-25T21:55:06.829Z,0.98
2023-09-25T21:57:34.991Z,1.00
2023-09-25T22:00:04.408Z,0.98
2023-09-25T22:02:31.989Z,1.10
2023-09-25T22:04:59.598Z,1.20
2023-09-25T22:07:28.526Z,1.08
2023-09-25T22:09:56.138Z,0.90
2023-09-25T22:12:24.102Z,1.08
2023-09-25T22:14:52.227Z,0.90
2023-09-25T22:17:21.389Z,0.90
2023-09-25T22:19:49.395Z,1.17
2023-09-25T22:22:17.850Z,1.00
2023-09-25T22:24:47.844Z,1.20
2023-09-25T22:27:18.106Z,1.17
2023-09-25T22:29:46.197Z,1.20
2023-09-25T22:32:14.403Z,1.00
2023-09-25T22:34:46.328Z,1.30
2023-09-25T22:37:14.642Z,1.08
2023-09-25T22:39:42.684Z,1.55
2023-09-25T22:42:12.235Z,1.25
2023-09-25T22:44:40.288Z,1.48
2023-09-25T22:47:08.358Z,1.70
2023-09-25T22:49:36.268Z,1.40
2023-09-25T22:52:04.451Z,1.40
2023-09-25T22:54:32.469Z,1.20
2023-09-25T22:57:00.311Z,1.23
2023-09-25T22:59:30.312Z,1.35
2023-09-25T23:02:19.881Z,1.50
2023-09-25T23:04:48.396Z,1.25
2023-09-25T23:07:17.516Z,1.20
2023-09-25T23:09:45.723Z,1.40
2023-09-25T23:12:13.638Z,1.60
2023-09-25T23:14:43.024Z,1.23
2023-09-25T23:17:11.433Z,1.45
2023-09-25T23:19:39.797Z,1.40
2023-09-25T23:22:07.426Z,1.50
2023-09-25T23:24:35.047Z,1.30
2023-09-25T23:27:03.121Z,1.23
2023-09-25T23:29:30.699Z,1.23
2023-09-25T23:31:59.977Z,1.20
2023-09-25T23:34:27.670Z,1.05
2023-09-25T23:36:55.698Z,1.10
2023-09-25T23:39:24.104Z,1.40
2023-09-25T23:41:51.719Z,1.08
2023-09-25T23:44:19.277Z,1.20
2023-09-25T23:46:47.134Z,1.48
2023-09-25T23:49:17.182Z,1.38
2023-09-25T23:51:44.808Z,1.58
2023-09-25T23:54:12.326Z,1.42
2023-09-25T23:56:39.877Z,0.98
2023-09-25T23:59:07.741Z,1.20
